Time;durP1;ratioP1;P1;durP2;ratioP2;P2;SDS_P1;SDS_P2;PMS_P1;PMS_P2;Temp;Humidity;BMP_temperature;BMP_pressure;BME280_temperature;BME280_humidity;BME280_pressure;Samples;Min_cycle;Max_cycle;Signal;HPM_P1;HPM_P2
2022/07/23 00:01:27;;;;;;;13.00;11.30;;;;;;;;;;775355;180;912669;-63
2022/07/23 00:03:54;;;;;;;14.37;12.03;;;;;;;;;;768822;180;920933;-59
2022/07/23 00:06:18;;;;;;;19.90;13.17;;;;;;;;;;769728;180;918399;-59
2022/07/23 00:08:44;;;;;;;12.70;10.70;;;;;;;;;;773275;180;918868;-58
2022/07/23 00:11:10;;;;;;;14.50;10.80;;;;;;;;;;774779;180;908207;-57
2022/07/23 00:13:36;;;;;;;16.10;10.97;;;;;;;;;;768535;180;919173;-57
2022/07/23 00:16:01;;;;;;;11.98;10.77;;;;;;;;;;771876;180;925278;-58
2022/07/23 00:18:27;;;;;;;14.10;10.60;;;;;;;;;;778043;180;920461;-58
2022/07/23 00:20:53;;;;;;;16.67;13.30;;;;;;;;;;770444;180;922337;-58
2022/07/23 00:23:19;;;;;;;14.85;12.20;;;;;;;;;;771209;180;922149;-59
2022/07/23 00:25:45;;;;;;;18.30;13.90;;;;;;;;;;776059;180;824329;-58
2022/07/23 00:28:11;;;;;;;16.97;12.27;;;;;;;;;;774908;180;921677;-58
2022/07/23 00:30:37;;;;;;;16.58;13.30;;;;;;;;;;772781;180;916304;-62
2022/07/23 00:33:03;;;;;;;12.60;10.23;;;;;;;;;;772970;180;920814;-59
2022/07/23 00:35:29;;;;;;;18.23;10.33;;;;;;;;;;775400;180;919560;-59
2022/07/23 00:37:54;;;;;;;14.23;10.60;;;;;;;;;;769139;180;919258;-58
2022/07/23 00:40:20;;;;;;;14.50;10.57;;;;;;;;;;769546;180;919393;-60
2022/07/23 00:42:46;;;;;;;12.40;10.17;;;;;;;;;;777372;180;1021327;-60
2022/07/23 00:45:12;;;;;;;11.30;9.90;;;;;;;;;;774342;180;920176;-60
2022/07/23 00:47:38;;;;;;;14.00;11.35;;;;;;;;;;771282;180;1019275;-59
2022/07/23 00:50:04;;;;;;;13.77;11.43;;;;;;;;;;775652;180;919435;-59
2022/07/23 00:52:30;;;;;;;16.33;13.40;;;;;;;;;;773369;180;920653;-58
2022/07/23 00:54:56;;;;;;;21.10;15.80;;;;;;;;;;771407;180;932419;-58
2022/07/23 00:57:22;;;;;;;22.50;15.52;;;;;;;;;;772424;180;915415;-59
2022/07/23 00:59:47;;;;;;;21.37;14.63;;;;;;;;;;769776;180;914021;-60
2022/07/23 01:02:13;;;;;;;21.60;13.45;;;;;;;;;;772533;180;913622;-58
2022/07/23 01:04:39;;;;;;;16.60;14.90;;;;;;;;;;771912;179;914523;-60
2022/07/23 01:07:05;;;;;;;17.83;14.07;;;;;;;;;;781560;179;919524;-58
2022/07/23 01:09:31;;;;;;;23.77;15.33;;;;;;;;;;774618;180;923781;-59
2022/07/23 01:11:57;;;;;;;22.10;14.97;;;;;;;;;;766122;181;921213;-60
2022/07/23 01:14:22;;;;;;;18.93;14.73;;;;;;;;;;779139;180;819135;-59
2022/07/23 01:16:48;;;;;;;17.23;14.33;;;;;;;;;;773172;180;819156;-60
2022/07/23 01:19:14;;;;;;;21.17;16.37;;;;;;;;;;773332;180;919036;-59
2022/07/23 01:21:43;;;;;;;19.67;15.83;;;;;;;;;;776376;180;883958;-58
2022/07/23 01:24:09;;;;;;;17.60;14.00;;;;;;;;;;777564;180;715939;-59
2022/07/23 01:26:35;;;;;;;17.67;13.80;;;;;;;;;;771062;180;919794;-59
2022/07/23 01:29:00;;;;;;;15.90;14.20;;;;;;;;;;770311;180;919991;-60
2022/07/23 01:31:26;;;;;;;17.03;12.87;;;;;;;;;;777151;180;818183;-60
2022/07/23 01:33:52;;;;;;;16.63;14.10;;;;;;;;;;772905;180;920058;-59
2022/07/23 01:36:18;;;;;;;18.70;14.80;;;;;;;;;;772095;180;919638;-60
2022/07/23 01:38:44;;;;;;;16.10;12.77;;;;;;;;;;780695;180;916928;-59
2022/07/23 01:41:10;;;;;;;16.53;14.50;;;;;;;;;;774197;180;919640;-63
2022/07/23 01:43:35;;;;;;;14.90;13.15;;;;;;;;;;772960;180;918275;-59
2022/07/23 01:46:01;;;;;;;19.87;13.70;;;;;;;;;;775783;180;921184;-60
2022/07/23 01:48:27;;;;;;;18.97;14.03;;;;;;;;;;768496;180;939457;-59
2022/07/23 01:50:53;;;;;;;18.27;13.13;;;;;;;;;;770910;180;919411;-60
2022/07/23 01:53:19;;;;;;;16.00;12.90;;;;;;;;;;770339;180;917909;-59
2022/07/23 01:55:45;;;;;;;15.13;13.03;;;;;;;;;;780085;180;818981;-59
2022/07/23 01:58:11;;;;;;;14.73;12.00;;;;;;;;;;773024;180;914030;-59
2022/07/23 02:00:36;;;;;;;15.10;12.70;;;;;;;;;;769666;180;919142;-60
2022/07/23 02:03:02;;;;;;;16.17;12.70;;;;;;;;;;780622;180;816940;-58
2022/07/23 02:05:29;;;;;;;14.40;12.60;;;;;;;;;;771757;180;942114;-59
2022/07/23 02:07:54;;;;;;;15.87;13.27;;;;;;;;;;772826;180;918888;-59
2022/07/23 02:10:20;;;;;;;17.53;11.63;;;;;;;;;;778343;180;812496;-59
2022/07/23 02:12:46;;;;;;;16.47;13.07;;;;;;;;;;769245;180;914772;-59
2022/07/23 02:15:12;;;;;;;15.70;12.93;;;;;;;;;;769094;180;921115;-60
2022/07/23 02:17:38;;;;;;;14.43;12.87;;;;;;;;;;770169;180;917502;-60
2022/07/23 02:20:04;;;;;;;15.60;12.57;;;;;;;;;;774759;180;919374;-61
2022/07/23 02:22:30;;;;;;;17.37;13.70;;;;;;;;;;773807;180;919325;-59
2022/07/23 02:24:56;;;;;;;20.17;12.13;;;;;;;;;;772110;180;920498;-60
2022/07/23 02:27:23;;;;;;;16.80;13.00;;;;;;;;;;774194;180;917486;-59
2022/07/23 02:29:48;;;;;;;16.13;13.00;;;;;;;;;;774305;180;919423;-59
2022/07/23 02:32:14;;;;;;;18.00;12.00;;;;;;;;;;772905;180;922912;-59
2022/07/23 02:34:39;;;;;;;21.70;11.80;;;;;;;;;;778010;180;854491;-59
2022/07/23 02:37:05;;;;;;;15.03;13.27;;;;;;;;;;773622;180;916465;-62
2022/07/23 02:39:31;;;;;;;16.50;12.83;;;;;;;;;;775205;180;917263;-60
2022/07/23 02:41:57;;;;;;;17.87;13.38;;;;;;;;;;773168;180;918724;-60
2022/07/23 02:44:23;;;;;;;15.20;12.70;;;;;;;;;;773301;180;919553;-59
2022/07/23 02:46:49;;;;;;;15.67;12.50;;;;;;;;;;770931;180;918801;-58
2022/07/23 02:49:15;;;;;;;15.13;12.43;;;;;;;;;;773037;180;816726;-59
2022/07/23 02:51:41;;;;;;;15.17;13.57;;;;;;;;;;778358;180;862939;-61
2022/07/23 02:54:07;;;;;;;14.47;12.90;;;;;;;;;;774009;180;818509;-59
2022/07/23 02:56:32;;;;;;;15.93;13.20;;;;;;;;;;774002;180;915849;-60
2022/07/23 02:58:58;;;;;;;15.00;12.30;;;;;;;;;;779392;179;842571;-60
2022/07/23 03:01:24;;;;;;;17.93;13.90;;;;;;;;;;768333;180;922103;-60
2022/07/23 03:03:50;;;;;;;16.00;12.33;;;;;;;;;;772380;180;919018;-60
2022/07/23 03:06:16;;;;;;;18.53;11.83;;;;;;;;;;772666;180;919969;-61
2022/07/23 03:08:42;;;;;;;16.40;12.97;;;;;;;;;;767361;180;985905;-62
2022/07/23 03:11:10;;;;;;;15.43;12.57;;;;;;;;;;769096;180;813431;-61
2022/07/23 03:13:33;;;;;;;15.47;12.90;;;;;;;;;;773609;179;826690;-60
2022/07/23 03:15:59;;;;;;;14.90;11.60;;;;;;;;;;780510;180;812654;-60
2022/07/23 03:18:25;;;;;;;16.30;13.20;;;;;;;;;;772431;180;918081;-61
2022/07/23 03:20:51;;;;;;;16.43;13.03;;;;;;;;;;771835;180;921010;-62
2022/07/23 03:23:17;;;;;;;15.53;13.40;;;;;;;;;;775108;180;848718;-61
2022/07/23 03:25:43;;;;;;;14.03;12.43;;;;;;;;;;774245;180;918845;-61
2022/07/23 03:28:08;;;;;;;15.40;13.27;;;;;;;;;;775002;178;919240;-60
2022/07/23 03:30:34;;;;;;;18.33;12.73;;;;;;;;;;780562;179;816221;-60
2022/07/23 03:33:00;;;;;;;16.40;11.80;;;;;;;;;;773546;179;919367;-60
2022/07/23 03:35:26;;;;;;;17.80;14.37;;;;;;;;;;773472;180;924950;-59
2022/07/23 03:37:52;;;;;;;15.20;13.18;;;;;;;;;;772381;179;819702;-60
2022/07/23 03:40:18;;;;;;;15.97;13.00;;;;;;;;;;769415;180;895829;-60
2022/07/23 03:42:45;;;;;;;19.07;13.43;;;;;;;;;;771784;180;817659;-61
2022/07/23 03:45:10;;;;;;;14.67;13.17;;;;;;;;;;769109;180;875208;-60
2022/07/23 03:47:35;;;;;;;15.77;13.20;;;;;;;;;;780136;180;919758;-59
2022/07/23 03:50:01;;;;;;;15.63;14.00;;;;;;;;;;775120;180;910536;-60
2022/07/23 03:52:27;;;;;;;15.90;12.87;;;;;;;;;;771094;180;919082;-59
2022/07/23 03:54:53;;;;;;;15.50;13.33;;;;;;;;;;778121;180;927713;-61
2022/07/23 03:57:19;;;;;;;14.27;12.63;;;;;;;;;;774788;180;919524;-61
2022/07/23 03:59:45;;;;;;;17.30;14.10;;;;;;;;;;771760;180;921012;-60
2022/07/23 04:02:11;;;;;;;16.70;13.77;;;;;;;;;;776599;180;919291;-61
2022/07/23 04:04:37;;;;;;;18.10;14.33;;;;;;;;;;776920;180;883348;-60
2022/07/23 04:07:03;;;;;;;16.33;14.03;;;;;;;;;;769021;180;922164;-61
2022/07/23 04:09:29;;;;;;;16.80;14.20;;;;;;;;;;773299;180;919695;-61
2022/07/23 04:11:55;;;;;;;17.30;12.90;;;;;;;;;;775327;180;919606;-60
2022/07/23 04:14:21;;;;;;;14.10;12.43;;;;;;;;;;771262;180;921939;-60
2022/07/23 04:16:46;;;;;;;14.60;12.97;;;;;;;;;;774077;180;906807;-61
2022/07/23 04:19:12;;;;;;;16.77;12.40;;;;;;;;;;776999;180;820122;-62
2022/07/23 04:21:38;;;;;;;13.50;12.10;;;;;;;;;;774470;180;917080;-62
2022/07/23 04:24:04;;;;;;;17.97;12.27;;;;;;;;;;771628;180;820724;-61
2022/07/23 04:26:30;;;;;;;14.97;12.40;;;;;;;;;;773858;180;919477;-60
2022/07/23 04:28:56;;;;;;;21.93;16.63;;;;;;;;;;772482;180;816314;-62
2022/07/23 04:31:22;;;;;;;21.13;12.80;;;;;;;;;;770903;180;919111;-61
2022/07/23 04:33:47;;;;;;;23.10;13.73;;;;;;;;;;771593;180;819228;-62
2022/07/23 04:36:13;;;;;;;16.57;14.00;;;;;;;;;;774941;180;914888;-63
2022/07/23 04:38:39;;;;;;;15.47;13.47;;;;;;;;;;773452;180;915606;-62
2022/07/23 04:41:05;;;;;;;16.77;13.20;;;;;;;;;;773961;178;919018;-62
2022/07/23 04:43:31;;;;;;;21.93;13.10;;;;;;;;;;777165;179;919840;-62
2022/07/23 04:45:57;;;;;;;18.10;14.40;;;;;;;;;;773384;180;917942;-61
2022/07/23 04:48:23;;;;;;;16.47;13.87;;;;;;;;;;772849;179;920011;-61
2022/07/23 04:50:48;;;;;;;15.53;13.00;;;;;;;;;;775476;180;817008;-61
2022/07/23 04:53:14;;;;;;;17.43;12.70;;;;;;;;;;772404;180;922732;-60
2022/07/23 04:55:40;;;;;;;16.43;13.90;;;;;;;;;;772865;179;919527;-62
2022/07/23 04:58:06;;;;;;;20.05;14.45;;;;;;;;;;767392;180;1030830;-61
2022/07/23 05:00:32;;;;;;;17.43;13.77;;;;;;;;;;766163;179;819934;-61
2022/07/23 05:02:58;;;;;;;18.40;15.13;;;;;;;;;;768604;180;924901;-61
2022/07/23 05:05:24;;;;;;;17.23;13.40;;;;;;;;;;768532;180;919365;-61
2022/07/23 05:07:50;;;;;;;19.47;12.97;;;;;;;;;;776470;180;916035;-62
2022/07/23 05:10:16;;;;;;;14.80;12.63;;;;;;;;;;774825;180;817435;-61
2022/07/23 05:12:42;;;;;;;18.80;13.20;;;;;;;;;;768918;180;919485;-61
2022/07/23 05:15:08;;;;;;;18.07;14.93;;;;;;;;;;777581;180;918688;-61
2022/07/23 05:17:34;;;;;;;15.53;12.83;;;;;;;;;;773968;180;915588;-61
2022/07/23 05:20:00;;;;;;;15.20;12.45;;;;;;;;;;772844;180;919261;-62
2022/07/23 05:22:25;;;;;;;15.93;12.40;;;;;;;;;;769213;180;920966;-63
2022/07/23 05:24:51;;;;;;;15.30;12.30;;;;;;;;;;773610;180;919495;-63
2022/07/23 05:27:17;;;;;;;22.87;12.67;;;;;;;;;;772792;180;918493;-63
2022/07/23 05:29:43;;;;;;;17.73;13.20;;;;;;;;;;768240;180;941398;-62
2022/07/23 05:32:09;;;;;;;14.30;12.30;;;;;;;;;;775274;180;919284;-61
2022/07/23 05:34:35;;;;;;;19.77;12.27;;;;;;;;;;772498;180;919042;-61
2022/07/23 05:37:00;;;;;;;17.98;12.98;;;;;;;;;;771740;180;919368;-61
2022/07/23 05:39:26;;;;;;;18.30;13.03;;;;;;;;;;776425;180;918809;-61
2022/07/23 05:41:52;;;;;;;14.50;12.30;;;;;;;;;;773893;180;919418;-61
2022/07/23 05:44:18;;;;;;;13.83;11.73;;;;;;;;;;771710;180;896529;-62
2022/07/23 05:46:44;;;;;;;16.20;12.53;;;;;;;;;;776514;180;817058;-62
2022/07/23 05:49:10;;;;;;;17.00;12.83;;;;;;;;;;770454;180;919717;-62
2022/07/23 05:51:36;;;;;;;13.80;12.40;;;;;;;;;;771527;179;919353;-62
2022/07/23 05:54:02;;;;;;;16.37;13.30;;;;;;;;;;773501;179;818855;-62
2022/07/23 05:56:27;;;;;;;15.47;13.30;;;;;;;;;;780211;180;885590;-61
2022/07/23 05:58:53;;;;;;;15.90;12.30;;;;;;;;;;773561;178;818527;-62
2022/07/23 06:01:19;;;;;;;15.13;10.90;;;;;;;;;;773296;180;882893;-62
2022/07/23 06:03:45;;;;;;;14.10;11.27;;;;;;;;;;778242;180;918192;-61
2022/07/23 06:06:11;;;;;;;14.23;10.50;;;;;;;;;;774111;180;912430;-61
2022/07/23 06:08:37;;;;;;;17.00;12.80;;;;;;;;;;774198;180;919618;-63
2022/07/23 06:11:02;;;;;;;19.23;12.03;;;;;;;;;;776422;180;923558;-63
2022/07/23 06:13:28;;;;;;;12.18;10.88;;;;;;;;;;770322;179;920562;-63
2022/07/23 06:15:54;;;;;;;14.20;12.07;;;;;;;;;;770924;179;816903;-61
2022/07/23 06:18:20;;;;;;;14.30;10.00;;;;;;;;;;771616;180;918384;-60
2022/07/23 06:20:46;;;;;;;14.17;10.33;;;;;;;;;;771574;180;913085;-62
2022/07/23 06:23:12;;;;;;;12.63;10.40;;;;;;;;;;769778;180;952810;-61
2022/07/23 06:25:38;;;;;;;17.40;10.50;;;;;;;;;;771477;179;924899;-62
2022/07/23 06:28:03;;;;;;;14.30;11.20;;;;;;;;;;778042;180;818178;-64
2022/07/23 06:30:29;;;;;;;11.97;10.77;;;;;;;;;;771759;180;919827;-63
2022/07/23 06:32:55;;;;;;;12.37;11.03;;;;;;;;;;772025;180;918385;-63
2022/07/23 06:35:21;;;;;;;15.17;11.40;;;;;;;;;;775299;180;922370;-64
2022/07/23 06:37:47;;;;;;;12.27;10.70;;;;;;;;;;772419;180;822412;-62
2022/07/23 06:40:13;;;;;;;16.90;11.83;;;;;;;;;;776620;180;627021;-62
2022/07/23 06:42:40;;;;;;;12.80;11.03;;;;;;;;;;776690;180;628581;-62
2022/07/23 06:45:07;;;;;;;13.27;10.80;;;;;;;;;;781154;180;620034;-61
2022/07/23 06:47:32;;;;;;;15.03;11.90;;;;;;;;;;775989;180;631666;-62
2022/07/23 06:49:58;;;;;;;18.27;12.53;;;;;;;;;;771743;180;629266;-62
2022/07/23 06:52:25;;;;;;;12.00;10.80;;;;;;;;;;780793;180;619436;-62
2022/07/23 06:54:50;;;;;;;13.23;10.73;;;;;;;;;;769508;180;816088;-62
2022/07/23 06:57:16;;;;;;;16.67;10.67;;;;;;;;;;773105;180;818289;-61
2022/07/23 06:59:42;;;;;;;11.97;10.13;;;;;;;;;;779101;180;638383;-62
2022/07/23 07:02:08;;;;;;;15.50;10.43;;;;;;;;;;775564;180;630188;-62
2022/07/23 07:04:33;;;;;;;13.93;10.73;;;;;;;;;;778548;178;625859;-62
2022/07/23 07:06:59;;;;;;;17.73;11.40;;;;;;;;;;778012;179;632524;-63
2022/07/23 07:09:25;;;;;;;14.60;10.97;;;;;;;;;;780041;179;625162;-62
2022/07/23 07:11:51;;;;;;;16.50;11.93;;;;;;;;;;776884;180;636679;-62
2022/07/23 07:14:17;;;;;;;14.00;10.60;;;;;;;;;;774581;180;642906;-63
2022/07/23 07:16:43;;;;;;;12.07;10.40;;;;;;;;;;779335;180;634934;-62
2022/07/23 07:19:09;;;;;;;15.00;11.60;;;;;;;;;;769826;180;646297;-62
2022/07/23 07:21:34;;;;;;;11.50;10.10;;;;;;;;;;773159;180;634682;-63
2022/07/23 07:24:00;;;;;;;11.73;10.23;;;;;;;;;;782030;180;634206;-61
2022/07/23 07:26:26;;;;;;;11.80;10.57;;;;;;;;;;775742;180;624785;-61
2022/07/23 07:28:52;;;;;;;26.83;11.10;;;;;;;;;;775530;180;634764;-61
2022/07/23 07:31:18;;;;;;;13.93;11.10;;;;;;;;;;781459;180;616913;-61
2022/07/23 07:33:44;;;;;;;11.47;9.70;;;;;;;;;;776410;180;632236;-60
2022/07/23 07:36:10;;;;;;;13.40;10.23;;;;;;;;;;777144;180;626648;-62
2022/07/23 07:38:35;;;;;;;13.77;10.20;;;;;;;;;;777676;180;647846;-61
2022/07/23 07:41:01;;;;;;;14.93;10.43;;;;;;;;;;780863;180;626114;-62
2022/07/23 07:43:27;;;;;;;13.47;10.90;;;;;;;;;;776919;180;884745;-62
2022/07/23 07:45:53;;;;;;;14.10;10.60;;;;;;;;;;776742;180;627893;-60
2022/07/23 07:48:19;;;;;;;12.30;10.17;;;;;;;;;;781060;180;612710;-62
2022/07/23 07:50:45;;;;;;;15.70;11.70;;;;;;;;;;779016;180;623507;-59
2022/07/23 07:53:10;;;;;;;12.63;10.60;;;;;;;;;;774459;180;623551;-59
2022/07/23 07:55:36;;;;;;;13.93;11.03;;;;;;;;;;778207;180;629239;-59
2022/07/23 07:58:02;;;;;;;13.90;10.70;;;;;;;;;;773861;180;681487;-59
2022/07/23 08:00:28;;;;;;;13.40;10.40;;;;;;;;;;775246;180;620766;-61
2022/07/23 08:02:56;;;;;;;18.13;10.73;;;;;;;;;;775401;180;635771;-61
2022/07/23 08:05:21;;;;;;;10.67;9.57;;;;;;;;;;780065;180;626826;-61
2022/07/23 08:07:47;;;;;;;14.70;10.70;;;;;;;;;;776956;180;637385;-60
2022/07/23 08:10:13;;;;;;;11.40;10.20;;;;;;;;;;777564;180;634411;-60
2022/07/23 08:12:39;;;;;;;14.23;11.07;;;;;;;;;;778920;180;636205;-62
2022/07/23 08:15:05;;;;;;;14.13;10.10;;;;;;;;;;777813;178;632620;-61
2022/07/23 08:17:31;;;;;;;10.67;9.57;;;;;;;;;;777729;180;630475;-62
2022/07/23 08:19:57;;;;;;;11.10;9.53;;;;;;;;;;780994;180;642794;-61
2022/07/23 08:22:23;;;;;;;15.03;12.27;;;;;;;;;;776797;179;618806;-64
2022/07/23 08:24:49;;;;;;;13.17;10.87;;;;;;;;;;774644;180;643895;-61
2022/07/23 08:27:14;;;;;;;12.53;9.50;;;;;;;;;;775285;180;625163;-61
2022/07/23 08:29:40;;;;;;;12.17;10.70;;;;;;;;;;781447;180;635431;-60
2022/07/23 08:32:06;;;;;;;11.97;10.57;;;;;;;;;;776585;180;633056;-62
2022/07/23 08:34:32;;;;;;;11.23;10.03;;;;;;;;;;775185;180;628225;-61
2022/07/23 08:36:58;;;;;;;15.77;10.90;;;;;;;;;;780030;180;633043;-62
2022/07/23 08:39:24;;;;;;;13.80;10.93;;;;;;;;;;778659;180;614174;-62
2022/07/23 08:41:49;;;;;;;12.70;10.43;;;;;;;;;;777983;180;626182;-61
2022/07/23 08:44:15;;;;;;;12.43;9.67;;;;;;;;;;778018;180;619177;-62
2022/07/23 08:46:41;;;;;;;13.93;11.00;;;;;;;;;;775574;180;628033;-63
2022/07/23 08:49:07;;;;;;;11.03;9.83;;;;;;;;;;773952;179;628272;-62
2022/07/23 08:51:33;;;;;;;11.07;9.83;;;;;;;;;;775853;180;634641;-63
2022/07/23 08:53:59;;;;;;;12.17;9.43;;;;;;;;;;777330;180;627647;-63
2022/07/23 08:56:24;;;;;;;10.67;9.67;;;;;;;;;;774564;180;647082;-62
2022/07/23 08:58:50;;;;;;;10.87;9.77;;;;;;;;;;774772;180;635669;-62
2022/07/23 09:01:16;;;;;;;13.27;9.80;;;;;;;;;;779260;180;620126;-62
2022/07/23 09:03:44;;;;;;;10.37;8.77;;;;;;;;;;774447;180;636422;-62
2022/07/23 09:06:08;;;;;;;12.20;9.47;;;;;;;;;;776453;180;622801;-62
2022/07/23 09:08:34;;;;;;;11.50;9.03;;;;;;;;;;778653;180;633919;-63
2022/07/23 09:11:00;;;;;;;10.97;9.60;;;;;;;;;;775773;180;636524;-63
2022/07/23 09:13:34;;;;;;;13.10;9.03;;;;;;;;;;774780;180;627084;-62
2022/07/23 09:16:01;;;;;;;10.70;9.20;;;;;;;;;;776200;180;624251;-61
2022/07/23 09:18:38;;;;;;;16.93;10.30;;;;;;;;;;778158;180;634373;-61
2022/07/23 09:21:05;;;;;;;13.53;9.07;;;;;;;;;;779701;179;623722;-62
2022/07/23 09:23:37;;;;;;;12.67;9.50;;;;;;;;;;773673;180;629820;-62
2022/07/23 09:26:03;;;;;;;10.27;8.90;;;;;;;;;;774279;179;627033;-61
2022/07/23 09:28:28;;;;;;;14.80;10.07;;;;;;;;;;778756;179;644953;-62
2022/07/23 09:30:54;;;;;;;17.33;9.90;;;;;;;;;;778746;179;635951;-61
2022/07/23 09:33:22;;;;;;;12.23;8.53;;;;;;;;;;775957;179;642376;-62
2022/07/23 09:35:46;;;;;;;14.53;9.63;;;;;;;;;;776764;179;629558;-61
2022/07/23 09:38:12;;;;;;;9.27;8.37;;;;;;;;;;778369;180;633040;-60
2022/07/23 09:40:38;;;;;;;10.30;7.90;;;;;;;;;;777301;180;646781;-67
2022/07/23 09:43:04;;;;;;;14.33;9.30;;;;;;;;;;774484;179;711596;-62
2022/07/23 09:45:29;;;;;;;10.77;9.00;;;;;;;;;;778545;180;631746;-60
2022/07/23 09:48:01;;;;;;;12.87;9.30;;;;;;;;;;776291;180;647327;-61
2022/07/23 09:50:27;;;;;;;12.53;9.33;;;;;;;;;;775424;180;629109;-60
2022/07/23 09:52:53;;;;;;;10.03;9.03;;;;;;;;;;776631;180;633613;-61
2022/07/23 09:55:19;;;;;;;9.10;8.20;;;;;;;;;;780597;180;618891;-65
2022/07/23 09:57:46;;;;;;;9.70;8.90;;;;;;;;;;774405;180;628027;-61
2022/07/23 10:00:11;;;;;;;12.10;8.63;;;;;;;;;;774869;179;637135;-61
2022/07/23 10:02:37;;;;;;;9.00;8.03;;;;;;;;;;778172;179;642630;-60
2022/07/23 10:05:04;;;;;;;10.03;7.57;;;;;;;;;;775086;180;625923;-59
2022/07/23 10:07:30;;;;;;;10.47;9.03;;;;;;;;;;776844;180;627919;-61
2022/07/23 10:09:55;;;;;;;19.77;9.67;;;;;;;;;;777800;180;641899;-60
2022/07/23 10:12:35;;;;;;;12.93;8.40;;;;;;;;;;776656;180;627323;-61
2022/07/23 10:14:52;;;;;;;9.50;8.50;;;;;;;;;;775747;180;627082;-61
2022/07/23 10:17:19;;;;;;;11.07;7.70;;;;;;;;;;776106;180;671359;-62
2022/07/23 10:19:45;;;;;;;9.53;8.53;;;;;;;;;;779627;180;641347;-63
2022/07/23 10:22:12;;;;;;;9.43;8.27;;;;;;;;;;774032;180;629994;-62
2022/07/23 10:24:38;;;;;;;10.93;7.90;;;;;;;;;;774277;180;646972;-60
2022/07/23 10:27:06;;;;;;;11.63;8.23;;;;;;;;;;773473;180;621126;-62
2022/07/23 10:29:38;;;;;;;11.13;7.13;;;;;;;;;;775132;180;622876;-60
2022/07/23 10:32:08;;;;;;;12.63;9.33;;;;;;;;;;775505;179;636079;-60
2022/07/23 10:34:34;;;;;;;8.93;8.07;;;;;;;;;;772002;180;632983;-60
2022/07/23 10:37:00;;;;;;;11.13;8.03;;;;;;;;;;775506;180;622382;-60
2022/07/23 10:39:29;;;;;;;9.00;8.10;;;;;;;;;;775879;179;619260;-60
2022/07/23 10:42:10;;;;;;;11.07;9.40;;;;;;;;;;774835;180;616557;-60
2022/07/23 10:44:40;;;;;;;8.37;7.57;;;;;;;;;;775715;179;628048;-60
2022/07/23 10:49:39;;;;;;;10.40;8.20;;;;;;;;;;776495;180;630329;-60
2022/07/23 10:52:10;;;;;;;9.77;7.93;;;;;;;;;;781603;180;624260;-60
2022/07/23 10:54:36;;;;;;;8.67;7.87;;;;;;;;;;778019;180;637443;-60
2022/07/23 10:57:05;;;;;;;11.40;9.13;;;;;;;;;;775781;180;630802;-60
2022/07/23 10:59:30;;;;;;;8.90;8.10;;;;;;;;;;777859;180;636421;-60
2022/07/23 11:01:56;;;;;;;8.77;7.87;;;;;;;;;;775754;180;615810;-60
2022/07/23 11:04:22;;;;;;;8.93;8.10;;;;;;;;;;773260;180;633707;-59
2022/07/23 11:07:03;;;;;;;9.03;7.97;;;;;;;;;;775629;180;620495;-61
2022/07/23 11:09:47;;;;;;;9.53;7.70;;;;;;;;;;772406;180;624116;-60
2022/07/23 11:12:28;;;;;;;14.10;8.40;;;;;;;;;;775235;179;622394;-60
2022/07/23 11:15:06;;;;;;;10.40;9.40;;;;;;;;;;773325;179;692624;-61
2022/07/23 11:17:32;;;;;;;11.80;8.53;;;;;;;;;;774199;180;629155;-61
2022/07/23 11:20:03;;;;;;;12.20;7.80;;;;;;;;;;775793;179;626999;-60
2022/07/23 11:22:35;;;;;;;10.10;9.00;;;;;;;;;;773757;180;623063;-60
2022/07/23 11:25:01;;;;;;;9.60;7.80;;;;;;;;;;773164;180;634256;-60
2022/07/23 11:27:33;;;;;;;15.03;9.53;;;;;;;;;;774235;180;662703;-59
2022/07/23 11:29:58;;;;;;;10.07;8.10;;;;;;;;;;775267;180;635027;-59
2022/07/23 11:32:24;;;;;;;14.53;8.77;;;;;;;;;;773285;180;619139;-60
2022/07/23 11:34:50;;;;;;;8.97;8.07;;;;;;;;;;774875;179;646057;-59
2022/07/23 11:37:22;;;;;;;12.30;8.43;;;;;;;;;;780184;180;635025;-60
2022/07/23 11:39:48;;;;;;;11.67;8.60;;;;;;;;;;776143;180;627014;-59
2022/07/23 11:42:13;;;;;;;11.23;8.67;;;;;;;;;;774396;180;623741;-62
2022/07/23 11:44:39;;;;;;;17.52;10.43;;;;;;;;;;774876;180;632110;-60
2022/07/23 11:47:05;;;;;;;14.33;10.13;;;;;;;;;;779565;180;635656;-60
2022/07/23 11:49:31;;;;;;;14.57;9.43;;;;;;;;;;777019;179;616629;-60
2022/07/23 11:52:04;;;;;;;11.90;10.63;;;;;;;;;;778498;180;633482;-60
2022/07/23 11:54:28;;;;;;;13.13;8.80;;;;;;;;;;779780;180;627750;-59
2022/07/23 11:56:55;;;;;;;11.27;8.93;;;;;;;;;;776583;179;616637;-60
2022/07/23 11:59:21;;;;;;;10.83;9.70;;;;;;;;;;777270;180;626898;-60
2022/07/23 12:01:52;;;;;;;10.13;9.10;;;;;;;;;;776814;180;650787;-60
2022/07/23 12:04:18;;;;;;;13.63;9.23;;;;;;;;;;780866;179;626780;-63
2022/07/23 12:06:44;;;;;;;12.73;9.57;;;;;;;;;;774491;179;649892;-60
2022/07/23 12:09:10;;;;;;;12.17;9.20;;;;;;;;;;775069;179;633510;-61
2022/07/23 12:11:36;;;;;;;10.43;8.50;;;;;;;;;;778597;179;629377;-59
2022/07/23 12:14:02;;;;;;;14.43;9.97;;;;;;;;;;777670;179;619789;-60
2022/07/23 12:16:28;;;;;;;12.77;9.30;;;;;;;;;;776918;180;627337;-60
2022/07/23 12:18:53;;;;;;;10.13;9.07;;;;;;;;;;776038;179;628772;-60
2022/07/23 12:21:19;;;;;;;16.30;8.90;;;;;;;;;;779586;179;626958;-59
2022/07/23 12:23:45;;;;;;;9.87;8.87;;;;;;;;;;775867;179;619999;-63
2022/07/23 12:26:12;;;;;;;14.47;8.97;;;;;;;;;;776220;180;627041;-60
2022/07/23 12:28:37;;;;;;;12.77;10.67;;;;;;;;;;777365;179;629949;-60
2022/07/23 12:31:03;;;;;;;10.50;9.20;;;;;;;;;;773146;180;641962;-60
2022/07/23 12:33:29;;;;;;;14.83;9.90;;;;;;;;;;774514;180;641644;-60
2022/07/23 12:35:55;;;;;;;10.23;9.20;;;;;;;;;;778276;180;627965;-60
2022/07/23 12:38:20;;;;;;;10.33;9.10;;;;;;;;;;775903;180;633211;-60
2022/07/23 12:40:46;;;;;;;11.30;8.43;;;;;;;;;;777114;180;615402;-60
2022/07/23 12:43:20;;;;;;;10.10;9.00;;;;;;;;;;774888;180;627966;-60
2022/07/23 12:45:49;;;;;;;9.33;8.40;;;;;;;;;;779544;179;617820;-60
2022/07/23 12:48:15;;;;;;;11.93;8.50;;;;;;;;;;776942;180;620000;-60
2022/07/23 12:50:42;;;;;;;8.97;8.07;;;;;;;;;;775971;180;636422;-60
2022/07/23 12:53:08;;;;;;;18.17;8.97;;;;;;;;;;774800;180;647777;-61
2022/07/23 12:55:34;;;;;;;11.90;9.20;;;;;;;;;;777999;180;612555;-60
2022/07/23 12:58:04;;;;;;;12.27;9.40;;;;;;;;;;773042;180;636497;-59
2022/07/23 13:00:29;;;;;;;10.50;9.10;;;;;;;;;;772926;179;622283;-59
2022/07/23 13:02:55;;;;;;;13.03;9.37;;;;;;;;;;781278;178;616974;-60
2022/07/23 13:05:21;;;;;;;10.57;9.50;;;;;;;;;;776771;178;639769;-59
2022/07/23 13:07:47;;;;;;;10.30;9.30;;;;;;;;;;776917;179;666205;-59
2022/07/23 13:10:13;;;;;;;14.60;8.27;;;;;;;;;;775404;179;640300;-61
2022/07/23 13:12:38;;;;;;;11.00;8.03;;;;;;;;;;776190;180;639153;-60
2022/07/23 13:15:06;;;;;;;10.63;8.90;;;;;;;;;;774721;179;734652;-60
2022/07/23 13:17:30;;;;;;;9.90;8.40;;;;;;;;;;776151;179;625585;-60
2022/07/23 13:19:56;;;;;;;9.97;8.83;;;;;;;;;;779069;180;818274;-59
2022/07/23 13:22:22;;;;;;;12.20;8.50;;;;;;;;;;777804;179;629232;-59
2022/07/23 13:24:48;;;;;;;9.93;9.00;;;;;;;;;;777258;180;633052;-59
2022/07/23 13:27:14;;;;;;;10.30;9.20;;;;;;;;;;778636;180;630212;-60
2022/07/23 13:29:39;;;;;;;11.37;9.40;;;;;;;;;;778035;180;618535;-58
2022/07/23 13:32:05;;;;;;;10.63;9.53;;;;;;;;;;776606;180;624448;-59
2022/07/23 13:34:31;;;;;;;9.63;8.63;;;;;;;;;;780521;180;623909;-59
2022/07/23 13:36:57;;;;;;;12.23;9.50;;;;;;;;;;772185;180;906736;-59
2022/07/23 13:39:23;;;;;;;12.87;10.10;;;;;;;;;;772756;180;819306;-63
2022/07/23 13:41:49;;;;;;;15.70;10.07;;;;;;;;;;775478;180;615811;-59
2022/07/23 13:44:14;;;;;;;10.63;9.60;;;;;;;;;;778198;180;813362;-59
2022/07/23 13:46:40;;;;;;;10.57;9.57;;;;;;;;;;775001;180;638986;-59
2022/07/23 13:49:07;;;;;;;10.60;8.97;;;;;;;;;;770740;180;1027390;-59
2022/07/23 13:51:33;;;;;;;11.43;8.77;;;;;;;;;;779297;180;688946;-60
2022/07/23 13:53:59;;;;;;;11.60;9.43;;;;;;;;;;774366;180;859258;-60
2022/07/23 13:56:25;;;;;;;11.77;8.80;;;;;;;;;;772204;180;1039187;-59
2022/07/23 13:58:51;;;;;;;16.73;9.97;;;;;;;;;;779619;180;620155;-61
2022/07/23 14:01:18;;;;;;;15.10;10.20;;;;;;;;;;771229;180;1167948;-60
2022/07/23 14:03:44;;;;;;;14.67;9.47;;;;;;;;;;772999;180;765305;-59
2022/07/23 14:06:10;;;;;;;11.80;10.17;;;;;;;;;;771195;180;1041295;-59